createdAt,value
2017-11-06T09:44:49.340Z,86.40
2017-11-06T09:47:16.831Z,87.00
2017-11-06T09:49:44.442Z,86.70
2017-11-06T09:52:12.727Z,86.80
2017-11-06T09:54:40.224Z,86.80
2017-11-06T09:57:07.714Z,86.60
2017-11-06T09:59:35.976Z,86.60
2017-11-06T10:02:03.467Z,86.50
2017-11-06T10:04:31.728Z,86.30
2017-11-06T10:11:06.084Z,86.30
2017-11-06T10:13:34.401Z,87.50
2017-11-06T10:18:54.814Z,87.90
2017-11-06T10:22:50.999Z,87.40
2017-11-06T10:25:18.528Z,88.20
2017-11-06T10:27:46.040Z,89.10
2017-11-06T10:30:14.296Z,88.60
2017-11-06T10:32:42.585Z,88.30
2017-11-06T10:35:10.849Z,88.90
2017-11-06T10:37:39.122Z,89.00
2017-11-06T10:40:07.122Z,88.20
2017-11-06T10:42:34.191Z,88.20
2017-11-06T10:45:01.704Z,88.50
2017-11-06T10:47:29.965Z,90.00
2017-11-06T10:49:57.470Z,90.00
2017-11-06T10:52:24.976Z,89.80
2017-11-06T10:54:52.486Z,89.90
2017-11-06T10:57:19.973Z,89.70
2017-11-06T10:59:47.470Z,90.00
2017-11-06T11:02:15.728Z,89.20
2017-11-06T11:04:56.580Z,89.20
2017-11-06T11:07:24.184Z,89.50
2017-11-06T11:09:52.444Z,89.10
2017-11-06T11:12:20.057Z,89.10
2017-11-06T11:14:47.131Z,89.20
2017-11-06T11:17:14.960Z,90.00
2017-11-06T11:19:42.025Z,89.40
2017-11-06T11:22:09.086Z,89.30
2017-11-06T11:24:36.271Z,89.20
2017-11-06T11:27:04.099Z,89.30
2017-11-06T11:29:31.159Z,89.20
2017-11-06T11:31:58.651Z,89.70
2017-11-06T11:34:26.931Z,89.70
2017-11-06T11:36:55.188Z,90.00
2017-11-06T11:39:23.467Z,89.30
2017-11-06T11:41:50.966Z,89.30
2017-11-06T11:44:18.607Z,89.60
2017-11-06T11:46:46.871Z,89.70
2017-11-06T11:49:15.135Z,90.10
2017-11-06T11:51:42.624Z,90.00
2017-11-06T11:54:10.996Z,90.20
2017-11-06T11:56:39.272Z,90.30
2017-11-06T11:59:07.535Z,90.10
2017-11-06T12:01:35.800Z,89.60
2017-11-06T12:04:03.300Z,90.00
2017-11-06T12:06:30.802Z,90.10
2017-11-06T12:08:58.303Z,90.00
2017-11-06T12:11:26.559Z,90.00
2017-11-06T12:13:54.053Z,90.00
2017-11-06T12:16:21.545Z,90.10
2017-11-06T12:18:49.056Z,90.20
2017-11-06T12:21:17.314Z,90.40
2017-11-06T12:23:45.592Z,90.40
2017-11-06T12:26:13.852Z,90.60
2017-11-06T12:28:41.344Z,90.60
2017-11-06T12:31:08.850Z,90.30
2017-11-06T12:33:36.344Z,90.40
2017-11-06T12:36:04.928Z,90.70
2017-11-06T12:38:33.309Z,90.70
2017-11-06T12:41:01.573Z,90.50
2017-11-06T12:43:29.844Z,90.40
2017-11-06T12:45:57.352Z,90.40
2017-11-06T12:48:24.840Z,90.60
2017-11-06T12:50:52.348Z,90.80
2017-11-06T12:53:19.998Z,90.90
2017-11-06T12:55:48.264Z,91.10
2017-11-06T12:58:15.768Z,91.10
2017-11-06T13:00:43.271Z,91.20
2017-11-06T13:03:10.780Z,91.10
2017-11-06T13:05:38.287Z,91.10
2017-11-06T13:08:05.776Z,91.10
2017-11-06T13:10:34.032Z,91.00
2017-11-06T13:13:02.424Z,91.20
2017-11-06T13:15:29.955Z,90.80
2017-11-06T13:17:57.449Z,90.80
2017-11-06T13:20:24.956Z,91.00
2017-11-06T13:22:52.468Z,90.90
2017-11-06T13:25:20.118Z,90.90
2017-11-06T13:27:48.381Z,90.60
2017-11-06T13:30:16.644Z,90.50
2017-11-06T13:32:44.199Z,90.50
2017-11-06T13:35:11.695Z,90.70
2017-11-06T13:50:38.680Z,90.50
2017-11-06T13:53:06.179Z,89.90
2017-11-06T13:55:34.439Z,90.00
2017-11-06T13:58:01.939Z,90.00
2017-11-06T14:00:29.444Z,90.10
2017-11-06T14:02:57.134Z,90.30
2017-11-06T14:05:25.391Z,90.50
2017-11-06T14:07:52.879Z,90.50
2017-11-06T14:10:20.396Z,90.60
2017-11-06T14:12:47.884Z,90.80
2017-11-06T14:15:16.144Z,91.10
2017-11-06T14:17:43.647Z,91.00
2017-11-06T14:20:11.156Z,91.10
2017-11-06T14:22:38.647Z,91.20
2017-11-06T14:25:06.361Z,91.30
2017-11-06T14:27:33.924Z,91.40
2017-11-06T14:30:01.417Z,91.10
2017-11-06T14:32:29.684Z,91.40
2017-11-06T14:34:57.955Z,91.20
2017-11-06T14:37:25.604Z,91.20
2017-11-06T14:39:53.096Z,91.30
2017-11-06T14:42:20.598Z,91.20
2017-11-06T14:44:48.111Z,91.30
2017-11-06T14:47:16.389Z,91.00
2017-11-06T14:49:44.643Z,91.10
2017-11-06T14:52:12.151Z,91.10
2017-11-06T14:54:39.876Z,91.20
2017-11-06T14:57:08.233Z,91.20
2017-11-06T14:59:35.920Z,91.20
2017-11-06T15:02:04.200Z,91.30
2017-11-06T15:04:32.468Z,91.70
2017-11-06T15:07:00.734Z,91.30
2017-11-06T15:09:29.012Z,91.40
2017-11-06T15:11:57.276Z,91.50
2017-11-06T15:14:24.788Z,91.50
2017-11-06T15:16:52.291Z,91.50
2017-11-06T15:19:19.802Z,91.50
2017-11-06T15:21:47.333Z,91.20
2017-11-06T15:24:15.819Z,90.90
2017-11-06T15:26:44.080Z,91.10
2017-11-06T15:31:46.584Z,91.10
2017-11-06T15:34:15.034Z,91.00
2017-11-06T15:36:42.536Z,91.00
2017-11-06T15:39:10.184Z,91.10
2017-11-06T15:41:38.444Z,91.40
2017-11-06T15:44:06.123Z,91.30
2017-11-06T15:46:34.403Z,91.20
2017-11-06T15:49:02.668Z,91.20
2017-11-06T15:51:31.133Z,91.20
2017-11-06T15:56:52.127Z,91.30
2017-11-06T15:59:19.696Z,91.20
2017-11-06T16:03:13.121Z,91.30
2017-11-06T16:05:41.397Z,91.30
2017-11-06T16:08:09.664Z,91.30
2017-11-06T16:10:37.920Z,91.30
2017-11-06T16:13:05.416Z,91.30
2017-11-06T16:15:32.919Z,91.20
2017-11-06T16:18:00.626Z,91.20
2017-11-06T16:20:28.888Z,91.40
2017-11-06T16:22:57.180Z,91.30
2017-11-06T16:25:25.507Z,91.20
2017-11-06T16:27:53.012Z,91.20
2017-11-06T16:30:21.278Z,91.10
2017-11-06T16:32:49.555Z,91.00
2017-11-06T16:35:17.823Z,90.80
2017-11-06T16:37:45.325Z,90.80
2017-11-06T16:40:12.832Z,90.80
2017-11-06T16:42:40.340Z,90.90
2017-11-06T16:45:07.839Z,90.50
2017-11-06T16:47:35.335Z,90.70
2017-11-06T16:50:03.604Z,91.00
2017-11-06T16:52:32.196Z,91.20
2017-11-06T16:54:59.857Z,91.10
2017-11-06T16:57:28.177Z,91.40
2017-11-06T16:59:56.310Z,91.40
2017-11-06T17:02:23.815Z,91.30
2017-11-06T17:04:51.316Z,91.20
2017-11-06T17:07:19.579Z,91.10
2017-11-06T17:09:47.839Z,90.90
2017-11-06T17:12:15.339Z,91.10
2017-11-06T17:14:42.863Z,90.90
2017-11-06T17:17:11.140Z,91.20
2017-11-06T17:19:38.644Z,91.20
2017-11-06T17:22:06.253Z,91.30
2017-11-06T17:24:33.810Z,91.30
2017-11-06T17:27:01.324Z,91.30
2017-11-06T17:29:28.844Z,91.30
2017-11-06T17:31:56.348Z,91.30
2017-11-06T17:34:23.845Z,91.30
2017-11-06T17:36:51.340Z,91.60
2017-11-06T17:39:19.603Z,91.60
2017-11-06T17:41:47.864Z,91.40
2017-11-06T17:44:15.383Z,91.30
2017-11-06T17:46:42.927Z,91.30
2017-11-06T17:49:10.450Z,91.20
2017-11-06T17:51:38.777Z,91.40
2017-11-06T17:54:06.324Z,91.40
2017-11-06T17:56:34.061Z,91.30
2017-11-06T17:59:02.349Z,91.20
2017-11-06T18:01:29.847Z,91.20
2017-11-06T18:03:57.356Z,91.10
2017-11-06T18:06:25.619Z,91.20
2017-11-06T18:08:53.895Z,91.20
2017-11-06T18:11:21.415Z,91.20
2017-11-06T18:13:48.914Z,91.30
2017-11-06T18:16:16.428Z,91.40
2017-11-06T18:18:43.933Z,91.30
2017-11-06T18:21:12.327Z,91.40
2017-11-06T18:23:40.673Z,91.40
2017-11-06T18:26:08.361Z,91.40
2017-11-06T18:28:36.648Z,91.50
2017-11-06T18:31:04.152Z,91.50
2017-11-06T18:33:31.652Z,91.50
2017-11-06T18:35:59.946Z,91.30
2017-11-06T18:38:27.457Z,91.30
2017-11-06T18:40:55.364Z,91.10
2017-11-06T18:43:23.033Z,91.20
2017-11-06T18:45:50.656Z,91.20
2017-11-06T18:48:19.681Z,91.00
2017-11-06T18:50:47.224Z,91.00
2017-11-06T18:53:15.496Z,90.90
2017-11-06T18:55:42.996Z,90.90
2017-11-06T18:58:10.628Z,90.80
2017-11-06T19:00:38.907Z,91.00
2017-11-06T19:03:07.386Z,91.20
2017-11-06T19:05:35.663Z,90.80
2017-11-06T19:08:04.044Z,90.90
2017-11-06T19:10:32.311Z,91.00
2017-11-06T19:13:00.804Z,91.00
2017-11-06T19:15:29.084Z,90.90
2017-11-06T19:17:57.348Z,90.80
2017-11-06T19:20:25.631Z,90.60
2017-11-06T19:22:53.888Z,90.70
2017-11-06T19:25:21.389Z,90.70
2017-11-06T19:27:48.888Z,90.60
2017-11-06T19:30:16.388Z,90.60
2017-11-06T19:32:43.901Z,90.60
2017-11-06T19:35:11.603Z,90.80
2017-11-06T19:37:39.868Z,90.20
2017-11-06T19:40:08.129Z,90.40
2017-11-06T19:42:35.800Z,90.40
2017-11-06T19:45:03.328Z,90.50
2017-11-06T19:47:30.832Z,90.50
2017-11-06T19:49:59.120Z,90.70
2017-11-06T19:52:26.629Z,90.70
2017-11-06T19:54:54.134Z,90.80
2017-11-06T19:57:22.402Z,90.70
2017-11-06T19:59:50.670Z,90.60
2017-11-06T20:02:18.936Z,90.40
2017-11-06T20:04:46.439Z,90.40
2017-11-06T20:07:13.951Z,90.60
2017-11-06T20:09:41.453Z,90.50
2017-11-06T20:12:08.960Z,90.80
2017-11-06T20:14:36.485Z,90.60
2017-11-06T20:17:03.991Z,90.40
2017-11-06T20:19:32.579Z,90.50
2017-11-06T20:22:00.868Z,90.40
2017-11-06T20:24:29.137Z,90.40
2017-11-06T20:26:57.408Z,90.40
2017-11-06T20:29:25.713Z,90.40
2017-11-06T20:31:53.240Z,90.30
2017-11-06T20:34:21.515Z,90.20
2017-11-06T20:36:49.818Z,90.20
2017-11-06T20:39:17.324Z,90.20
2017-11-06T20:41:44.839Z,90.10
2017-11-06T20:44:12.360Z,90.10
2017-11-06T20:46:39.876Z,90.20
2017-11-06T20:49:07.390Z,90.20
2017-11-06T20:51:35.776Z,90.40
2017-11-06T20:54:04.059Z,90.40
2017-11-06T20:56:32.316Z,90.40
2017-11-06T20:58:59.828Z,90.40
2017-11-06T21:01:27.340Z,90.50
2017-11-06T21:03:55.601Z,90.70
2017-11-06T21:06:23.121Z,90.70
2017-11-06T21:08:50.618Z,90.40
2017-11-06T21:11:18.132Z,90.50
2017-11-06T21:13:45.643Z,90.60
2017-11-06T21:16:13.171Z,90.30
2017-11-06T21:18:40.690Z,90.20
2017-11-06T21:21:08.347Z,90.10
2017-11-06T21:23:35.861Z,90.30
2017-11-06T21:26:03.371Z,90.30
2017-11-06T21:28:31.740Z,90.10
2017-11-06T21:31:00.029Z,90.00
2017-11-06T21:33:27.552Z,90.00
2017-11-06T21:35:55.212Z,90.10
2017-11-06T21:38:22.736Z,90.00
2017-11-06T21:40:50.265Z,90.10
2017-11-06T21:43:17.771Z,90.00
2017-11-06T21:45:45.280Z,90.30
2017-11-06T21:48:12.935Z,90.30
2017-11-06T21:50:40.470Z,90.10
2017-11-06T21:53:07.968Z,90.20
2017-11-06T21:55:35.468Z,90.70
2017-11-06T21:58:02.980Z,90.20
2017-11-06T22:00:30.640Z,90.10
2017-11-06T22:02:58.139Z,90.10
2017-11-06T22:05:25.640Z,89.80
2017-11-06T22:07:54.116Z,90.00
2017-11-06T22:10:22.384Z,90.10
2017-11-06T22:12:50.767Z,90.10
2017-11-06T22:15:19.040Z,90.00
2017-11-06T22:17:47.308Z,90.10
2017-11-06T22:20:14.809Z,90.10
2017-11-06T22:22:42.304Z,90.30
2017-11-06T22:25:10.239Z,90.20
2017-11-06T22:27:37.755Z,90.30
2017-11-06T22:30:06.036Z,90.10
2017-11-06T22:32:34.295Z,90.10
2017-11-06T22:35:01.905Z,90.10
2017-11-06T22:37:29.420Z,89.40
2017-11-06T22:39:56.928Z,89.20
2017-11-06T22:42:24.427Z,89.50
2017-11-06T22:44:51.943Z,89.30
2017-11-06T22:47:19.440Z,89.70
2017-11-06T22:49:46.963Z,89.60
2017-11-06T22:52:14.451Z,89.90
2017-11-06T22:54:41.960Z,89.80
2017-11-06T22:57:09.461Z,90.00
2017-11-06T22:59:36.971Z,90.00
2017-11-06T23:02:05.236Z,90.00
2017-11-06T23:04:33.501Z,89.50
2017-11-06T23:07:01.004Z,89.50
2017-11-06T23:09:28.519Z,89.60
2017-11-06T23:11:56.024Z,89.60
2017-11-06T23:14:23.540Z,89.80
2017-11-06T23:16:51.828Z,89.60
2017-11-06T23:19:20.408Z,89.60
2017-11-06T23:21:48.679Z,89.60
2017-11-06T23:24:16.960Z,90.00
2017-11-06T23:26:45.228Z,90.10
2017-11-06T23:29:13.496Z,90.20
2017-11-06T23:31:41.016Z,90.20
2017-11-06T23:34:08.524Z,90.30
2017-11-06T23:36:36.788Z,90.30
2017-11-06T23:39:04.404Z,90.30
2017-11-06T23:41:31.916Z,90.30
2017-11-06T23:44:00.197Z,90.30
2017-11-06T23:46:28.459Z,90.10
2017-11-06T23:48:55.957Z,90.10
2017-11-06T23:51:23.483Z,90.10
2017-11-06T23:53:50.987Z,90.10
2017-11-06T23:56:18.496Z,90.00
2017-11-06T23:58:46.000Z,89.70
